Time;durP1;ratioP1;P1;durP2;ratioP2;P2;SDS_P1;SDS_P2;PMS_P1;PMS_P2;Temp;Humidity;BMP_temperature;BMP_pressure;BME280_temperature;BME280_humidity;BME280_pressure;Samples;Min_cycle;Max_cycle;Signal;HPM_P1;HPM_P2
2023/01/23 00:00:41;;;;;;;1.42;0.60;;;-0.80;94.70;;;;;;20928177;28;20045;-56
2023/01/23 00:10:43;;;;;;;1.42;0.52;;;-0.90;94.80;;;;;;20926996;28;20048;-57
2023/01/23 00:20:44;;;;;;;1.00;0.43;;;-0.90;95.20;;;;;;20923400;28;20539;-57
2023/01/23 00:30:46;;;;;;;0.68;0.40;;;-0.80;94.70;;;;;;20911191;28;20029;-57
2023/01/23 00:40:48;;;;;;;0.70;0.50;;;-0.90;94.80;;;;;;20912009;28;20036;-57
2023/01/23 00:50:49;;;;;;;0.98;0.43;;;-1.10;95.50;;;;;;20893290;28;20029;-56
2023/01/23 01:00:51;;;;;;;3.22;0.60;;;-1.00;95.20;;;;;;20909868;28;20049;-57
2023/01/23 01:10:53;;;;;;;0.63;0.40;;;-0.90;94.60;;;;;;20891063;28;20082;-57
2023/01/23 01:20:54;;;;;;;1.40;0.50;;;-1.10;95.00;;;;;;20891144;28;20029;-57
2023/01/23 01:30:57;;;;;;;1.75;0.70;;;-1.10;95.10;;;;;;20890276;28;20033;-58
2023/01/23 01:40:59;;;;;;;1.45;0.43;;;-1.10;95.40;;;;;;20889015;28;20032;-58
2023/01/23 01:51:04;;;;;;;1.00;0.52;;;-1.10;95.10;;;;;;20906514;28;20024;-57
2023/01/23 02:01:05;;;;;;;1.30;0.55;;;-1.00;95.40;;;;;;20906056;28;20343;-57
2023/01/23 02:11:07;;;;;;;1.25;0.47;;;-0.80;96.10;;;;;;20904846;28;20036;-57
2023/01/23 02:21:09;;;;;;;1.15;0.30;;;-0.60;96.70;;;;;;20885437;28;20029;-56
2023/01/23 02:31:12;;;;;;;0.50;0.35;;;-0.60;97.10;;;;;;20904811;28;20348;-57
2023/01/23 02:41:16;;;;;;;0.70;0.50;;;-0.60;98.80;;;;;;20884668;28;20037;-57
2023/01/23 02:51:20;;;;;;;0.75;0.40;;;-0.60;99.20;;;;;;20883526;28;20021;-56
2023/01/23 03:01:24;;;;;;;0.82;0.50;;;-0.40;99.00;;;;;;20901177;28;20571;-57
2023/01/23 03:11:27;;;;;;;0.75;0.35;;;-0.40;98.70;;;;;;20898659;28;20106;-55
2023/01/23 03:21:29;;;;;;;0.90;0.50;;;-0.50;98.60;;;;;;20882246;28;20363;-56
2023/01/23 03:31:31;;;;;;;0.47;0.30;;;-0.20;98.90;;;;;;20882603;28;20033;-56
2023/01/23 03:41:33;;;;;;;0.70;0.30;;;-0.20;98.70;;;;;;20882198;28;20086;-57
2023/01/23 03:51:38;;;;;;;0.63;0.38;;;-0.30;97.70;;;;;;20881806;28;20425;-57
2023/01/23 04:01:39;;;;;;;0.30;0.30;;;-0.30;98.00;;;;;;20909529;28;20049;-57
2023/01/23 04:11:42;;;;;;;1.08;0.50;;;-0.40;99.80;;;;;;20896199;28;20044;-57
2023/01/23 04:21:46;;;;;;;2.20;0.70;;;-0.80;99.90;;;;;;20895553;28;20397;-56
2023/01/23 04:31:47;;;;;;;0.77;0.45;;;-1.30;99.90;;;;;;20894251;28;20029;-57
2023/01/23 04:41:49;;;;;;;0.80;0.50;;;-1.30;99.90;;;;;;20894962;28;20044;-57
2023/01/23 04:52:14;;;;;;;0.70;0.40;;;-0.90;99.90;;;;;;20900244;28;20041;-58
2023/01/23 05:02:23;;;;;;;0.40;0.25;;;-0.60;99.90;;;;;;20892263;28;20040;-57
2023/01/23 05:12:26;;;;;;;1.98;0.30;;;-0.30;98.90;;;;;;20891926;28;20528;-58
2023/01/23 05:22:28;;;;;;;0.40;0.20;;;-0.30;99.50;;;;;;20890588;28;20036;-57
2023/01/23 05:32:29;;;;;;;0.82;0.50;;;-0.20;99.90;;;;;;20889890;28;20055;-56
2023/01/23 05:42:39;;;;;;;4.15;0.70;;;-0.60;99.90;;;;;;20871179;28;20032;-58
2023/01/23 05:53:07;;;;;;;2.40;1.13;;;-1.40;99.90;;;;;;20653083;28;20050;-57
2023/01/23 06:03:11;;;;;;;4.65;1.17;;;-2.00;99.90;;;;;;20630824;28;20447;-56
2023/01/23 06:13:39;;;;;;;2.50;1.17;;;-2.20;99.90;;;;;;20632856;28;20373;-55
2023/01/23 06:23:41;;;;;;;2.38;0.88;;;-2.00;99.90;;;;;;20701460;28;20588;-57
2023/01/23 06:33:48;;;;;;;1.95;1.13;;;-2.00;99.90;;;;;;20877362;28;20095;-57
2023/01/23 06:43:52;;;;;;;2.22;1.00;;;-2.10;99.90;;;;;;20884882;28;20036;-55
2023/01/23 06:53:57;;;;;;;2.72;1.08;;;-2.10;99.90;;;;;;20899154;28;20111;-56
2023/01/23 07:04:00;;;;;;;2.03;0.95;;;-2.10;99.90;;;;;;20883479;28;20393;-55
2023/01/23 07:14:03;;;;;;;3.03;1.27;;;-2.10;99.90;;;;;;20880976;28;20393;-58
2023/01/23 07:24:06;;;;;;;2.13;0.57;;;-2.00;99.90;;;;;;20865653;28;20083;-56
2023/01/23 07:34:08;;;;;;;1.33;0.63;;;-1.70;99.90;;;;;;20904341;28;20425;-58
2023/01/23 07:44:18;;;;;;;2.75;1.00;;;-1.50;99.90;;;;;;20919372;28;20075;-56
2023/01/23 07:54:19;;;;;;;2.03;1.23;;;-1.60;99.90;;;;;;20915197;28;20600;-57
2023/01/23 08:04:21;;;;;;;2.45;1.10;;;-1.60;99.90;;;;;;20878056;28;20103;-58
2023/01/23 08:14:23;;;;;;;3.03;0.90;;;-1.60;99.90;;;;;;20875902;28;20083;-55
2023/01/23 08:24:24;;;;;;;1.67;0.80;;;-1.30;99.90;;;;;;20889382;28;20029;-55
2023/01/23 08:34:26;;;;;;;2.03;1.20;;;-1.50;99.90;;;;;;20909683;28;20059;-55
2023/01/23 08:44:30;;;;;;;2.63;1.25;;;-1.60;99.90;;;;;;20886649;28;20347;-56
2023/01/23 08:54:32;;;;;;;1.60;0.93;;;-1.50;99.90;;;;;;20906215;28;20021;-57
2023/01/23 09:04:33;;;;;;;7.50;1.17;;;-1.40;99.90;;;;;;20909267;28;20040;-55
2023/01/23 09:14:35;;;;;;;1.33;0.70;;;-1.10;99.90;;;;;;20891168;28;20036;-56
2023/01/23 09:24:36;;;;;;;1.02;0.60;;;-0.90;99.90;;;;;;20908803;28;20052;-56
2023/01/23 09:34:38;;;;;;;0.47;0.28;;;-0.50;99.90;;;;;;20908279;28;20071;-57
2023/01/23 09:44:44;;;;;;;0.73;0.25;;;-0.30;99.90;;;;;;20907330;28;20040;-58
2023/01/23 09:54:48;;;;;;;0.40;0.20;;;-0.20;99.90;;;;;;20903278;28;20075;-58
2023/01/23 10:04:51;;;;;;;0.65;0.00;;;-0.10;99.90;;;;;;20905337;28;20053;-56
2023/01/23 10:15:09;;;;;;;0.30;0.10;;;0.00;99.90;;;;;;20905511;28;20088;-58
2023/01/23 10:25:19;;;;;;;0.05;0.00;;;0.10;99.90;;;;;;20903828;28;20021;-55
2023/01/23 10:35:52;;;;;;;1.65;0.20;;;0.30;99.90;;;;;;20885442;28;20191;-54
2023/01/23 10:45:53;;;;;;;0.05;0.00;;;0.30;99.90;;;;;;20893092;28;20045;-57
2023/01/23 10:55:59;;;;;;;0.13;0.10;;;0.30;99.90;;;;;;20901965;28;20037;-56
2023/01/23 11:06:15;;;;;;;0.10;0.00;;;0.40;99.90;;;;;;20901097;28;20037;-54
2023/01/23 11:16:20;;;;;;;0.00;0.00;;;0.50;99.90;;;;;;20900762;28;20029;-51
2023/01/23 11:26:33;;;;;;;0.03;0.00;;;0.60;99.90;;;;;;20900890;28;20024;-53
2023/01/23 11:37:03;;;;;;;0.10;0.00;;;0.60;99.90;;;;;;20898589;28;20482;-52
2023/01/23 11:47:04;;;;;;;0.00;0.00;;;0.70;99.90;;;;;;20899906;28;20040;-51
2023/01/23 11:57:09;;;;;;;0.00;0.00;;;0.70;99.90;;;;;;20882108;28;20103;-53
2023/01/23 12:07:19;;;;;;;0.03;0.00;;;0.70;99.90;;;;;;20898210;28;20488;-54
2023/01/23 12:17:32;;;;;;;0.93;0.07;;;0.70;99.90;;;;;;20895551;28;20122;-54
2023/01/23 12:27:45;;;;;;;0.00;0.00;;;0.80;99.90;;;;;;20911642;28;20033;-58
2023/01/23 12:38:04;;;;;;;0.05;0.00;;;0.80;99.90;;;;;;20910268;28;20025;-59
2023/01/23 12:48:23;;;;;;;0.00;0.00;;;0.70;99.90;;;;;;20909459;28;20083;-60
2023/01/23 12:58:28;;;;;;;0.00;0.00;;;0.60;99.90;;;;;;20909220;28;20449;-57
2023/01/23 13:09:11;;;;;;;0.10;0.00;;;0.60;99.90;;;;;;20910207;28;20033;-53
2023/01/23 13:29:50;;;;;;;0.10;0.00;;;0.50;99.90;;;;;;20908708;28;20445;-51
2023/01/23 13:40:13;;;;;;;0.30;0.00;;;0.60;99.90;;;;;;20906274;28;20368;-53
2023/01/23 13:50:31;;;;;;;0.10;0.00;;;0.60;99.90;;;;;;20906090;28;20029;-51
2023/01/23 14:00:37;;;;;;;0.65;0.10;;;0.60;99.90;;;;;;20888274;28;20040;-54
2023/01/23 14:10:45;;;;;;;0.10;0.03;;;0.60;99.90;;;;;;20899917;28;20037;-54
2023/01/23 14:20:50;;;;;;;0.00;0.00;;;0.60;99.90;;;;;;20880828;28;20042;-54
2023/01/23 14:30:55;;;;;;;0.28;0.10;;;0.60;99.90;;;;;;20904290;28;20126;-56
2023/01/23 14:40:57;;;;;;;0.20;0.00;;;0.60;99.90;;;;;;20902330;28;20029;-55
2023/01/23 14:51:28;;;;;;;0.30;0.08;;;0.60;99.90;;;;;;20902659;28;20029;-56
2023/01/23 15:01:29;;;;;;;0.20;0.10;;;0.70;99.90;;;;;;20900740;28;20036;-54
2023/01/23 15:11:32;;;;;;;0.00;0.00;;;0.70;99.90;;;;;;20901212;28;20044;-54
2023/01/23 15:21:40;;;;;;;0.00;0.00;;;0.60;99.90;;;;;;20900218;28;20037;-54
2023/01/23 15:31:45;;;;;;;0.08;0.08;;;0.60;99.90;;;;;;20900392;28;20363;-56
2023/01/23 15:42:04;;;;;;;0.10;0.05;;;0.60;99.90;;;;;;20899924;28;20037;-56
2023/01/23 15:52:17;;;;;;;0.20;0.08;;;0.60;99.90;;;;;;20900731;28;20033;-56
2023/01/23 16:02:21;;;;;;;0.00;0.00;;;0.50;99.90;;;;;;20914573;28;20068;-57
2023/01/23 16:12:27;;;;;;;0.00;0.00;;;0.50;99.90;;;;;;20910510;28;20025;-58
2023/01/23 16:22:28;;;;;;;0.00;0.00;;;0.50;99.90;;;;;;20914940;28;20029;-59
2023/01/23 16:32:30;;;;;;;0.00;0.00;;;0.50;99.90;;;;;;20911303;28;20037;-58
2023/01/23 16:42:32;;;;;;;0.28;0.10;;;0.50;99.90;;;;;;20910437;28;20437;-58
2023/01/23 16:52:34;;;;;;;0.10;0.10;;;0.50;99.90;;;;;;20912223;28;20037;-57
2023/01/23 17:02:36;;;;;;;0.80;0.10;;;0.50;99.90;;;;;;20910033;28;20041;-58
2023/01/23 17:12:38;;;;;;;0.00;0.00;;;0.40;99.90;;;;;;20909038;28;20467;-58
2023/01/23 17:22:41;;;;;;;0.38;0.00;;;0.40;99.90;;;;;;20908431;28;20029;-59
2023/01/23 17:32:46;;;;;;;0.30;0.00;;;0.40;99.90;;;;;;20902858;28;20029;-60
2023/01/23 17:42:48;;;;;;;0.10;0.10;;;0.40;99.90;;;;;;20905239;28;20532;-59
2023/01/23 17:52:51;;;;;;;0.20;0.10;;;0.40;99.90;;;;;;20908281;28;20115;-58
2023/01/23 18:02:57;;;;;;;0.35;0.13;;;0.50;99.90;;;;;;20905563;28;20114;-58
2023/01/23 18:13:04;;;;;;;0.25;0.10;;;0.50;99.90;;;;;;20905358;28;20036;-58
2023/01/23 18:23:11;;;;;;;0.50;0.20;;;0.60;99.90;;;;;;20902850;28;20470;-55
2023/01/23 18:33:30;;;;;;;0.63;0.20;;;0.50;99.90;;;;;;20905478;28;20037;-58
2023/01/23 18:43:42;;;;;;;0.73;0.30;;;0.30;99.90;;;;;;20900723;28;20588;-59
2023/01/23 18:54:22;;;;;;;2.55;0.20;;;0.40;99.90;;;;;;20897232;28;20029;-59
2023/01/23 19:04:40;;;;;;;2.85;0.40;;;0.50;99.90;;;;;;20893732;28;20494;-59
2023/01/23 19:15:20;;;;;;;0.75;0.30;;;0.60;99.90;;;;;;20898299;28;20032;-59
2023/01/23 19:25:22;;;;;;;0.47;0.20;;;0.60;99.90;;;;;;20899387;28;20029;-58
2023/01/23 19:35:24;;;;;;;0.30;0.20;;;0.50;99.90;;;;;;20915899;28;20028;-55
2023/01/23 19:45:26;;;;;;;0.93;0.30;;;0.50;99.90;;;;;;20899035;28;20048;-61
2023/01/23 19:55:31;;;;;;;1.23;0.30;;;0.60;99.90;;;;;;20915976;28;20075;-62
2023/01/23 20:05:33;;;;;;;2.13;0.30;;;0.60;99.90;;;;;;20915013;28;20033;-61
2023/01/23 20:15:34;;;;;;;0.63;0.32;;;0.60;99.90;;;;;;20914594;28;20339;-61
2023/01/23 20:25:36;;;;;;;0.68;0.40;;;0.60;99.90;;;;;;20893733;28;20091;-61
2023/01/23 20:35:38;;;;;;;2.58;0.38;;;0.70;99.90;;;;;;20894807;28;20032;-61
2023/01/23 20:45:51;;;;;;;1.02;0.30;;;0.60;99.90;;;;;;20910780;28;20505;-61
2023/01/23 20:55:53;;;;;;;0.43;0.20;;;0.60;99.90;;;;;;20893560;28;20045;-60
2023/01/23 21:05:55;;;;;;;1.77;0.32;;;0.50;99.90;;;;;;20892317;28;20599;-60
2023/01/23 21:15:59;;;;;;;1.10;0.60;;;0.50;99.90;;;;;;20905778;28;20063;-60
2023/01/23 21:26:02;;;;;;;0.80;0.40;;;0.30;99.90;;;;;;20906007;28;20047;-60
2023/01/23 21:36:04;;;;;;;1.63;0.43;;;0.50;99.90;;;;;;20908063;28;20092;-60
2023/01/23 21:46:05;;;;;;;0.95;0.50;;;0.60;99.90;;;;;;20907180;28;20029;-60
2023/01/23 21:56:09;;;;;;;1.13;0.30;;;0.60;99.90;;;;;;20906623;28;20045;-60
2023/01/23 22:06:11;;;;;;;0.80;0.30;;;0.60;99.90;;;;;;20903252;28;20090;-59
2023/01/23 22:16:14;;;;;;;2.47;0.52;;;0.60;99.90;;;;;;20901164;28;20036;-55
2023/01/23 22:26:16;;;;;;;0.38;0.20;;;0.50;99.90;;;;;;20904894;28;20024;-59
2023/01/23 22:36:18;;;;;;;0.65;0.30;;;0.40;99.90;;;;;;20885457;28;20029;-59
2023/01/23 22:46:22;;;;;;;1.27;0.30;;;0.50;99.90;;;;;;20902684;28;20029;-60
2023/01/23 22:56:25;;;;;;;1.85;0.32;;;0.50;99.90;;;;;;20899830;28;20465;-59
2023/01/23 23:06:27;;;;;;;0.70;0.28;;;0.50;99.90;;;;;;20900894;28;20036;-60
2023/01/23 23:16:30;;;;;;;1.65;0.50;;;0.60;99.90;;;;;;20900872;28;20382;-59
2023/01/23 23:26:32;;;;;;;0.88;0.30;;;0.50;99.90;;;;;;20901197;28;20064;-59
2023/01/23 23:36:34;;;;;;;2.10;0.47;;;0.60;99.90;;;;;;20900147;28;20044;-60
2023/01/23 23:46:36;;;;;;;0.50;0.28;;;0.50;99.90;;;;;;20899836;28;20386;-59
2023/01/23 23:56:38;;;;;;;1.08;0.50;;;0.50;99.90;;;;;;20899418;28;20438;-60
